TAF and METAR

Decoding for American and Canadian METARs and TAFs is not fully implemented.

Could not understand the following METAR

CYMT 290300Z AUTO 14006KT 9SM SCT095 BKN170 16/15 A2963 RMK SLP040 DENSITY ALT 1900FT
No TAF available for Chibougamau/Chapais Airport